Time;durP1;ratioP1;P1;durP2;ratioP2;P2;SDS_P1;SDS_P2;PMS_P1;PMS_P2;Temp;Humidity;BMP_temperature;BMP_pressure;BME280_temperature;BME280_humidity;BME280_pressure;Samples;Min_cycle;Max_cycle;Signal;HPM_P1;HPM_P2
2023/08/07 00:00:10;;;;;;;8.25;5.85;;;14.90;99.90;;;;;;4989192;28;20054;-83
2023/08/07 00:02:36;;;;;;;7.07;5.32;;;15.00;99.90;;;;;;4988055;28;20041;-83
2023/08/07 00:05:02;;;;;;;6.20;5.57;;;15.00;99.90;;;;;;4983361;28;20061;-83
2023/08/07 00:07:27;;;;;;;7.22;5.40;;;15.00;99.90;;;;;;4979722;28;20054;-83
2023/08/07 00:09:53;;;;;;;7.60;5.25;;;15.00;99.90;;;;;;4981644;28;20054;-84
2023/08/07 00:12:19;;;;;;;8.05;4.80;;;15.00;99.90;;;;;;4985479;28;20460;-84
2023/08/07 00:14:47;;;;;;;6.03;5.22;;;15.00;99.90;;;;;;4988276;28;20039;-83
2023/08/07 00:17:13;;;;;;;5.88;5.28;;;14.90;99.90;;;;;;4988895;28;20050;-84
2023/08/07 00:19:38;;;;;;;8.38;5.35;;;14.90;99.90;;;;;;4989800;28;20046;-83
2023/08/07 00:22:04;;;;;;;6.90;5.57;;;15.00;99.90;;;;;;4989251;28;20050;-85
2023/08/07 00:24:30;;;;;;;6.65;5.07;;;14.90;99.90;;;;;;4989526;28;20488;-84
2023/08/07 00:26:56;;;;;;;6.70;5.53;;;15.00;99.90;;;;;;4986795;28;20077;-83
2023/08/07 00:29:21;;;;;;;6.45;5.10;;;14.90;99.90;;;;;;4970060;28;20413;-84
2023/08/07 00:31:47;;;;;;;7.32;5.45;;;14.90;99.90;;;;;;4969770;28;20082;-84
2023/08/07 00:34:12;;;;;;;6.60;5.18;;;14.90;99.90;;;;;;4986423;28;20057;-83
2023/08/07 00:36:38;;;;;;;4.85;4.35;;;14.90;99.90;;;;;;4990398;28;20085;-83
2023/08/07 00:39:03;;;;;;;5.78;5.13;;;14.90;99.90;;;;;;4989744;28;20457;-83
2023/08/07 00:41:29;;;;;;;6.53;4.20;;;14.80;99.90;;;;;;4990848;28;20042;-84
2023/08/07 00:43:55;;;;;;;5.57;4.25;;;14.80;99.90;;;;;;4990583;28;20089;-84
2023/08/07 00:46:21;;;;;;;6.38;4.38;;;14.80;99.90;;;;;;4986270;28;20035;-84
2023/08/07 00:48:47;;;;;;;5.53;4.38;;;14.80;99.90;;;;;;4970207;28;20054;-84
2023/08/07 00:51:12;;;;;;;6.30;4.53;;;14.90;99.90;;;;;;4969925;28;20500;-84
2023/08/07 00:53:39;;;;;;;4.93;4.28;;;14.90;99.90;;;;;;4969713;28;20035;-84
2023/08/07 00:56:05;;;;;;;7.22;4.40;;;14.80;99.90;;;;;;4969134;28;20066;-84
2023/08/07 00:58:32;;;;;;;8.73;3.90;;;14.80;99.90;;;;;;4973473;28;20047;-84
2023/08/07 01:00:58;;;;;;;5.40;3.80;;;14.80;99.90;;;;;;4989838;28;20129;-83
2023/08/07 01:03:24;;;;;;;5.72;4.03;;;14.80;99.90;;;;;;4981866;28;20178;-83
2023/08/07 01:05:49;;;;;;;4.80;3.95;;;14.80;99.90;;;;;;4967681;28;20707;-83
2023/08/07 01:08:15;;;;;;;4.38;3.63;;;14.70;99.90;;;;;;4986872;28;20179;-83
2023/08/07 01:11:03;;;;;;;5.70;4.10;;;14.70;99.90;;;;;;4973057;28;20531;-84
2023/08/07 01:13:36;;;;;;;5.05;3.80;;;14.70;99.90;;;;;;4987143;28;20133;-84
2023/08/07 01:16:09;;;;;;;8.60;3.95;;;14.70;99.90;;;;;;4986906;28;20133;-84
2023/08/07 01:18:36;;;;;;;5.15;3.47;;;14.60;99.90;;;;;;4987627;28;20058;-83
2023/08/07 01:21:03;;;;;;;8.60;3.88;;;14.60;99.90;;;;;;4988170;28;20035;-83
2023/08/07 01:23:29;;;;;;;6.85;4.00;;;14.50;99.90;;;;;;4987616;28;20507;-83
2023/08/07 01:25:54;;;;;;;5.05;4.00;;;14.50;99.90;;;;;;4987585;28;20046;-83
2023/08/07 01:28:32;;;;;;;5.65;3.65;;;14.50;99.90;;;;;;4986699;28;21927;-85
2023/08/07 01:31:04;;;;;;;5.53;4.03;;;14.50;99.90;;;;;;4988293;28;20050;-83
2023/08/07 01:33:53;;;;;;;6.00;4.10;;;14.50;99.90;;;;;;4987342;28;20579;-84
2023/08/07 01:36:19;;;;;;;6.90;3.47;;;14.50;99.90;;;;;;4986439;28;20066;-83
2023/08/07 01:38:47;;;;;;;6.10;3.53;;;14.50;99.90;;;;;;4971226;28;20046;-84
2023/08/07 01:41:13;;;;;;;4.57;3.38;;;14.50;99.90;;;;;;4988121;28;20535;-83
2023/08/07 01:43:38;;;;;;;6.38;3.33;;;14.50;99.90;;;;;;4987709;28;20075;-83
2023/08/07 01:46:06;;;;;;;5.47;3.45;;;14.50;99.90;;;;;;4988481;28;20038;-84
2023/08/07 01:48:32;;;;;;;6.50;3.60;;;14.40;99.90;;;;;;4983457;28;20047;-86
2023/08/07 01:50:57;;;;;;;6.90;3.38;;;14.40;99.90;;;;;;4978610;28;20046;-83
2023/08/07 01:53:23;;;;;;;6.93;2.97;;;14.40;99.90;;;;;;4985971;28;20085;-83
2023/08/07 01:55:48;;;;;;;7.65;3.13;;;14.40;99.90;;;;;;4986445;28;20050;-86
2023/08/07 01:58:14;;;;;;;7.40;2.85;;;14.40;99.90;;;;;;4987544;28;20042;-84
2023/08/07 02:00:39;;;;;;;6.68;2.85;;;14.30;99.90;;;;;;4987711;28;20119;-84
2023/08/07 02:03:05;;;;;;;7.85;3.40;;;14.30;99.90;;;;;;4985351;28;20150;-84
2023/08/07 02:05:30;;;;;;;8.65;3.25;;;14.20;99.90;;;;;;4987648;28;20046;-84
2023/08/07 02:07:56;;;;;;;8.20;2.92;;;14.20;99.90;;;;;;4986954;28;20506;-83
2023/08/07 02:10:22;;;;;;;7.28;2.80;;;14.30;99.90;;;;;;4986782;28;20469;-83
2023/08/07 02:12:49;;;;;;;8.82;2.80;;;14.20;99.90;;;;;;4987090;28;20065;-84
2023/08/07 02:15:14;;;;;;;7.03;2.75;;;14.20;99.90;;;;;;4988359;28;20053;-84
2023/08/07 02:17:41;;;;;;;9.07;2.75;;;14.20;99.90;;;;;;4986383;28;20400;-84
2023/08/07 02:20:07;;;;;;;10.48;2.72;;;14.30;99.90;;;;;;4987562;28;20050;-84
2023/08/07 02:22:32;;;;;;;6.03;2.40;;;14.10;99.90;;;;;;4986833;28;20455;-83
2023/08/07 02:24:58;;;;;;;6.65;2.95;;;14.10;99.90;;;;;;4983900;28;20039;-84
2023/08/07 02:27:23;;;;;;;6.88;2.40;;;14.10;99.90;;;;;;4972573;28;20194;-84
2023/08/07 02:29:50;;;;;;;10.80;2.72;;;14.10;99.90;;;;;;4978093;28;20046;-83
2023/08/07 02:32:16;;;;;;;10.10;2.65;;;14.10;99.90;;;;;;4985571;28;20065;-83
2023/08/07 02:34:42;;;;;;;8.13;2.75;;;14.00;99.90;;;;;;4986316;28;20050;-83
2023/08/07 02:37:08;;;;;;;7.43;2.63;;;14.00;99.90;;;;;;4987173;28;20065;-84
2023/08/07 02:39:33;;;;;;;5.75;2.38;;;14.00;99.90;;;;;;4974956;28;20378;-84
2023/08/07 02:41:59;;;;;;;7.00;2.30;;;13.90;99.90;;;;;;4982665;28;20046;-84
2023/08/07 02:44:25;;;;;;;7.82;2.47;;;13.90;99.90;;;;;;4986750;28;20050;-83
2023/08/07 02:46:50;;;;;;;7.72;2.60;;;13.90;99.90;;;;;;4985444;28;20109;-83
2023/08/07 02:49:16;;;;;;;6.78;2.90;;;13.80;99.90;;;;;;4982329;28;20039;-84
2023/08/07 02:51:41;;;;;;;8.07;2.97;;;13.80;99.90;;;;;;4980303;28;20050;-83
2023/08/07 02:54:07;;;;;;;6.88;2.58;;;13.80;99.90;;;;;;4987166;28;20099;-83
2023/08/07 02:56:33;;;;;;;7.95;2.47;;;13.80;99.90;;;;;;4968524;28;20384;-83
2023/08/07 02:58:59;;;;;;;8.43;2.35;;;13.70;99.90;;;;;;4970682;28;20058;-84
2023/08/07 03:01:24;;;;;;;7.32;2.28;;;13.70;99.90;;;;;;4970934;28;20051;-83
2023/08/07 03:03:50;;;;;;;6.78;2.47;;;13.70;99.90;;;;;;4971883;28;20082;-83
2023/08/07 03:06:16;;;;;;;7.30;2.40;;;13.80;99.90;;;;;;4970702;28;20043;-83
2023/08/07 03:08:42;;;;;;;10.32;2.67;;;13.80;99.90;;;;;;4988718;28;20038;-83
2023/08/07 03:11:08;;;;;;;8.13;2.42;;;13.80;99.90;;;;;;4990816;28;20076;-83
2023/08/07 03:13:33;;;;;;;8.93;2.85;;;13.80;99.90;;;;;;4989448;28;20481;-83
2023/08/07 03:16:01;;;;;;;6.82;2.20;;;13.80;99.90;;;;;;4991028;28;20460;-83
2023/08/07 03:18:28;;;;;;;6.63;2.20;;;13.80;99.90;;;;;;4991698;28;20389;-83
2023/08/07 03:20:54;;;;;;;15.85;2.60;;;13.80;99.90;;;;;;4990650;28;20051;-83
2023/08/07 03:23:20;;;;;;;8.85;2.70;;;13.80;99.90;;;;;;4991280;28;20128;-83
2023/08/07 03:25:45;;;;;;;9.90;2.65;;;13.80;99.90;;;;;;4992001;28;20078;-83
2023/08/07 03:28:11;;;;;;;10.82;2.50;;;13.80;99.90;;;;;;4991169;28;20039;-83
2023/08/07 03:30:37;;;;;;;10.05;2.75;;;13.80;99.90;;;;;;4991015;28;20050;-84
2023/08/07 03:33:03;;;;;;;11.57;2.60;;;13.80;99.90;;;;;;4991686;28;20112;-85
2023/08/07 03:35:29;;;;;;;12.85;2.60;;;13.70;99.90;;;;;;4972658;28;20361;-83
2023/08/07 03:37:54;;;;;;;10.43;2.45;;;13.80;99.90;;;;;;4989828;28;20512;-83
2023/08/07 03:40:20;;;;;;;6.78;1.95;;;13.80;99.90;;;;;;4989994;28;20061;-83
2023/08/07 03:42:45;;;;;;;8.60;2.53;;;13.80;99.90;;;;;;4990956;28;20197;-83
2023/08/07 03:45:11;;;;;;;8.02;2.90;;;13.80;99.90;;;;;;4979666;28;20046;-83
2023/08/07 03:47:36;;;;;;;9.00;2.35;;;13.90;99.90;;;;;;4977211;28;20047;-84
2023/08/07 03:50:02;;;;;;;10.40;2.55;;;13.80;99.90;;;;;;4971683;28;20109;-87
2023/08/07 03:52:28;;;;;;;8.45;2.65;;;13.90;99.90;;;;;;4970943;28;20042;-84
2023/08/07 03:54:54;;;;;;;8.65;2.70;;;13.90;99.90;;;;;;4970887;28;20051;-84
2023/08/07 03:57:19;;;;;;;5.72;2.70;;;14.00;99.90;;;;;;4970770;28;20046;-84
2023/08/07 03:59:45;;;;;;;11.38;2.60;;;14.00;99.90;;;;;;4971918;28;20105;-84
2023/08/07 04:02:10;;;;;;;6.95;2.33;;;14.00;99.90;;;;;;4982678;28;20038;-84
2023/08/07 04:04:36;;;;;;;8.57;2.53;;;14.00;99.90;;;;;;4990271;28;20050;-86
2023/08/07 04:07:01;;;;;;;7.97;2.53;;;14.10;99.90;;;;;;4991510;28;20047;-84
2023/08/07 04:09:27;;;;;;;8.02;2.58;;;14.10;99.90;;;;;;4971640;28;20046;-83
2023/08/07 04:11:53;;;;;;;7.63;2.30;;;14.10;99.90;;;;;;4989646;28;20046;-84
2023/08/07 04:14:18;;;;;;;10.25;2.53;;;14.10;99.90;;;;;;4989562;28;20616;-83
2023/08/07 04:16:44;;;;;;;10.73;2.55;;;14.10;99.90;;;;;;4990615;28;20057;-83
2023/08/07 04:19:09;;;;;;;5.78;2.53;;;14.10;99.90;;;;;;4990156;28;20546;-84
2023/08/07 04:21:35;;;;;;;10.77;3.08;;;14.10;99.90;;;;;;4990718;28;20061;-84
2023/08/07 04:24:01;;;;;;;8.25;2.72;;;14.20;99.90;;;;;;4990165;28;20042;-84
2023/08/07 04:26:27;;;;;;;8.50;2.70;;;14.20;99.90;;;;;;4991041;28;20412;-84
2023/08/07 04:28:52;;;;;;;7.70;2.70;;;14.20;99.90;;;;;;4989256;28;20464;-84
2023/08/07 04:31:18;;;;;;;10.52;2.92;;;14.50;99.90;;;;;;4990179;28;20043;-86
2023/08/07 04:33:43;;;;;;;7.18;2.65;;;14.20;99.90;;;;;;4990897;28;20046;-87
2023/08/07 04:36:09;;;;;;;8.18;2.88;;;14.30;99.90;;;;;;4990349;28;20100;-88
2023/08/07 04:38:35;;;;;;;16.42;3.08;;;14.30;99.90;;;;;;4978723;28;20441;-87
2023/08/07 04:41:00;;;;;;;10.35;2.90;;;14.20;99.90;;;;;;4969912;28;20089;-87
2023/08/07 04:43:27;;;;;;;8.20;2.67;;;14.30;99.90;;;;;;4969695;28;20050;-87
2023/08/07 04:45:53;;;;;;;7.22;2.83;;;14.30;99.90;;;;;;4978891;28;20054;-86
2023/08/07 04:48:20;;;;;;;10.55;3.00;;;14.30;99.90;;;;;;4975796;28;20433;-87
2023/08/07 04:50:46;;;;;;;8.27;2.67;;;14.20;99.90;;;;;;4984271;28;20527;-88
2023/08/07 04:53:12;;;;;;;10.25;3.22;;;14.30;99.90;;;;;;4968924;28;20059;-87
2023/08/07 04:55:38;;;;;;;8.88;3.00;;;14.20;99.90;;;;;;4980704;28;20046;-87
2023/08/07 04:58:04;;;;;;;10.00;2.83;;;14.20;99.90;;;;;;4990545;28;20420;-87
2023/08/07 05:00:29;;;;;;;10.35;3.00;;;14.20;99.90;;;;;;4989883;28;20038;-88
2023/08/07 05:02:55;;;;;;;9.10;3.00;;;14.20;99.90;;;;;;4989933;28;20034;-87
2023/08/07 05:05:21;;;;;;;13.57;3.33;;;14.20;99.90;;;;;;4989503;28;20205;-88
2023/08/07 05:07:47;;;;;;;10.02;3.03;;;14.20;99.90;;;;;;4978709;28;20045;-87
2023/08/07 05:10:13;;;;;;;11.40;3.35;;;14.20;99.90;;;;;;4970241;28;20524;-88
2023/08/07 05:12:38;;;;;;;8.88;3.30;;;14.20;99.90;;;;;;4989844;28;20039;-87
2023/08/07 05:15:04;;;;;;;6.60;3.00;;;14.20;99.90;;;;;;4988608;28;20492;-86
2023/08/07 05:17:31;;;;;;;11.52;3.08;;;14.20;99.90;;;;;;4978651;28;20035;-86
2023/08/07 05:19:57;;;;;;;10.75;3.22;;;14.30;99.90;;;;;;4978097;28;20420;-85
2023/08/07 05:22:23;;;;;;;8.55;2.90;;;14.40;99.90;;;;;;4986031;28;20043;-86
2023/08/07 05:24:49;;;;;;;13.85;3.63;;;14.50;99.90;;;;;;4986478;28;20053;-86
2023/08/07 05:27:14;;;;;;;6.88;3.00;;;14.50;99.90;;;;;;4988866;28;20038;-88
2023/08/07 05:29:43;;;;;;;8.02;3.30;;;14.40;99.90;;;;;;4985485;28;20053;-87
2023/08/07 05:32:13;;;;;;;6.60;3.08;;;14.50;99.90;;;;;;4969666;28;20038;-86
2023/08/07 05:34:39;;;;;;;9.50;3.00;;;14.50;99.90;;;;;;4987406;28;20080;-86
2023/08/07 05:37:06;;;;;;;9.05;2.83;;;14.50;99.90;;;;;;4987538;28;20058;-88
2023/08/07 05:39:31;;;;;;;6.90;3.03;;;14.50;99.90;;;;;;4981713;28;20034;-87
2023/08/07 05:41:57;;;;;;;7.22;3.15;;;14.50;99.90;;;;;;4972251;28;20058;-88
2023/08/07 05:44:24;;;;;;;7.72;2.95;;;14.50;99.90;;;;;;4974317;28;20046;-86
2023/08/07 05:46:49;;;;;;;8.05;2.80;;;14.40;99.90;;;;;;4988617;28;20433;-87
2023/08/07 05:49:15;;;;;;;7.68;3.40;;;14.40;99.90;;;;;;4987589;28;20049;-87
2023/08/07 05:51:41;;;;;;;8.88;2.78;;;14.50;99.90;;;;;;4971240;28;20039;-87
2023/08/07 05:54:07;;;;;;;8.40;3.10;;;14.40;99.90;;;;;;4988077;28;20084;-87
2023/08/07 05:56:32;;;;;;;8.70;3.35;;;14.40;99.90;;;;;;4987297;28;20046;-86
2023/08/07 05:58:58;;;;;;;9.77;3.50;;;14.40;99.90;;;;;;4976664;28;20042;-87
2023/08/07 06:01:29;;;;;;;9.40;3.53;;;14.40;99.90;;;;;;4983854;28;20500;-86
2023/08/07 06:03:55;;;;;;;11.55;3.33;;;14.40;99.90;;;;;;4980135;28;20085;-86
2023/08/07 06:06:20;;;;;;;9.23;3.15;;;14.50;99.90;;;;;;4978099;28;20085;-86
2023/08/07 06:08:46;;;;;;;14.45;3.80;;;14.60;99.90;;;;;;4982044;28;20047;-85
2023/08/07 06:11:12;;;;;;;12.75;3.63;;;14.70;99.90;;;;;;4983145;28;20051;-84
2023/08/07 06:13:37;;;;;;;12.60;3.70;;;14.80;99.90;;;;;;4968819;28;20055;-85
2023/08/07 06:16:03;;;;;;;6.70;3.33;;;14.90;99.90;;;;;;4968950;28;20061;-85
2023/08/07 06:18:30;;;;;;;10.85;3.33;;;15.00;99.90;;;;;;4968754;28;20497;-85
2023/08/07 06:20:56;;;;;;;10.20;2.92;;;15.40;99.90;;;;;;4971216;28;20051;-84
2023/08/07 06:23:21;;;;;;;10.45;3.40;;;16.20;99.90;;;;;;4986383;28;20047;-85
2023/08/07 06:25:47;;;;;;;10.98;3.45;;;16.40;99.90;;;;;;4988184;28;20057;-84
2023/08/07 06:28:12;;;;;;;15.02;3.88;;;16.30;99.90;;;;;;4987412;28;20078;-85
2023/08/07 06:30:38;;;;;;;11.98;3.33;;;16.00;99.90;;;;;;4986959;28;20046;-86
2023/08/07 06:33:04;;;;;;;11.48;3.47;;;15.80;99.90;;;;;;4982604;28;20034;-86
2023/08/07 06:35:29;;;;;;;13.85;3.50;;;15.60;99.90;;;;;;4983551;28;20185;-85
2023/08/07 06:37:55;;;;;;;9.68;3.20;;;15.40;99.90;;;;;;4979389;28;20051;-86
2023/08/07 06:40:21;;;;;;;11.23;3.10;;;15.30;99.90;;;;;;4971953;28;20085;-86
2023/08/07 06:42:46;;;;;;;9.60;2.80;;;15.20;99.90;;;;;;4972134;28;20050;-85
2023/08/07 06:45:12;;;;;;;6.28;2.40;;;14.90;99.90;;;;;;4990274;28;20054;-85
2023/08/07 06:47:38;;;;;;;5.40;2.60;;;14.90;99.90;;;;;;4991268;28;20046;-86
2023/08/07 06:50:03;;;;;;;7.72;2.38;;;14.70;99.90;;;;;;4979548;28;20047;-86
2023/08/07 06:52:29;;;;;;;5.70;1.90;;;14.70;99.90;;;;;;4975787;28;20038;-87
2023/08/07 06:54:54;;;;;;;7.60;2.25;;;14.70;99.90;;;;;;4978349;28;20421;-84
2023/08/07 06:57:20;;;;;;;5.47;2.28;;;14.80;99.90;;;;;;4990626;28;20042;-85
2023/08/07 06:59:46;;;;;;;7.47;2.55;;;14.80;99.90;;;;;;4990766;28;20045;-85
2023/08/07 07:02:11;;;;;;;5.10;2.40;;;14.80;99.90;;;;;;4991539;28;20050;-84
2023/08/07 07:04:37;;;;;;;6.30;2.67;;;14.80;99.90;;;;;;4989521;28;20074;-85
2023/08/07 07:07:03;;;;;;;15.43;3.03;;;15.00;99.90;;;;;;4990006;28;20100;-84
2023/08/07 07:09:28;;;;;;;8.35;2.47;;;14.90;99.90;;;;;;4990737;28;20053;-86
2023/08/07 07:11:55;;;;;;;7.65;2.60;;;15.00;99.90;;;;;;4974018;28;20057;-85
2023/08/07 07:14:21;;;;;;;8.73;2.95;;;15.10;99.90;;;;;;4990798;28;20084;-84
2023/08/07 07:16:47;;;;;;;9.35;3.10;;;15.20;99.90;;;;;;4991401;28;20093;-85
2023/08/07 07:19:13;;;;;;;8.27;2.72;;;15.40;99.90;;;;;;4991126;28;20120;-85
2023/08/07 07:21:38;;;;;;;10.70;3.30;;;15.60;99.90;;;;;;4990930;28;20046;-84
2023/08/07 07:24:04;;;;;;;8.85;3.25;;;15.60;99.90;;;;;;4990151;28;20073;-85
2023/08/07 07:26:30;;;;;;;9.00;3.10;;;15.80;99.90;;;;;;4989814;28;20767;-85
2023/08/07 07:28:56;;;;;;;8.40;2.90;;;15.90;99.90;;;;;;4990644;28;20403;-84
2023/08/07 07:31:22;;;;;;;9.20;2.80;;;16.20;99.90;;;;;;4989567;28;20050;-85
2023/08/07 07:33:47;;;;;;;9.13;2.50;;;16.30;99.90;;;;;;4989152;28;20149;-84
2023/08/07 07:36:18;;;;;;;8.38;2.70;;;16.30;99.90;;;;;;4989419;28;20073;-84
2023/08/07 07:38:47;;;;;;;8.38;2.35;;;16.20;99.90;;;;;;4989829;28;20073;-84
2023/08/07 07:41:13;;;;;;;6.03;2.22;;;15.90;99.90;;;;;;4990419;28;20057;-84
2023/08/07 07:43:39;;;;;;;4.28;1.88;;;15.60;99.90;;;;;;4984218;28;20106;-84
2023/08/07 07:46:04;;;;;;;5.28;2.13;;;15.50;99.90;;;;;;4971144;28;20046;-85
2023/08/07 07:48:30;;;;;;;4.22;1.95;;;15.40;99.90;;;;;;4970015;28;20142;-83
2023/08/07 07:51:03;;;;;;;7.38;2.10;;;15.50;99.90;;;;;;4970725;28;20038;-87
2023/08/07 07:53:28;;;;;;;5.65;2.03;;;15.50;99.90;;;;;;4970544;28;20118;-86
2023/08/07 07:55:54;;;;;;;4.65;1.98;;;15.70;99.90;;;;;;4970111;28;20082;-86
2023/08/07 07:58:20;;;;;;;6.82;2.03;;;15.70;99.90;;;;;;4970661;28;20043;-84
2023/08/07 08:00:47;;;;;;;3.03;1.40;;;15.70;99.90;;;;;;4985841;28;20046;-86
2023/08/07 08:03:13;;;;;;;5.00;1.90;;;15.50;99.90;;;;;;4988028;28;20144;-86
2023/08/07 08:05:39;;;;;;;5.18;2.08;;;15.40;99.90;;;;;;4981697;28;20273;-87
2023/08/07 08:08:09;;;;;;;4.72;1.60;;;15.30;99.90;;;;;;4971630;28;20524;-85
2023/08/07 08:10:35;;;;;;;3.15;1.67;;;15.30;99.90;;;;;;4977065;28;20414;-87
2023/08/07 08:13:01;;;;;;;1.75;1.40;;;15.40;99.90;;;;;;4974707;28;20050;-85
2023/08/07 08:15:27;;;;;;;3.63;1.45;;;15.40;99.90;;;;;;4973030;28;20373;-86
2023/08/07 08:17:53;;;;;;;3.92;1.42;;;15.50;99.90;;;;;;4984811;28;20138;-85
2023/08/07 08:20:19;;;;;;;4.05;1.52;;;15.50;99.90;;;;;;4975847;28;20553;-86
2023/08/07 08:22:45;;;;;;;3.78;1.85;;;15.60;99.90;;;;;;4973595;28;20042;-87
2023/08/07 08:25:11;;;;;;;3.95;1.67;;;15.60;99.90;;;;;;4971823;28;20043;-86
2023/08/07 08:27:38;;;;;;;5.40;1.92;;;15.70;99.90;;;;;;4976360;28;20401;-88
2023/08/07 08:30:04;;;;;;;6.00;1.83;;;15.90;99.90;;;;;;4971364;28;20476;-86
2023/08/07 08:32:30;;;;;;;8.02;2.60;;;16.20;99.90;;;;;;4974366;28;20077;-84
2023/08/07 08:34:55;;;;;;;5.35;2.20;;;16.40;99.90;;;;;;4984192;28;20054;-86
2023/08/07 08:37:21;;;;;;;4.95;2.03;;;16.40;99.90;;;;;;4975268;28;20457;-89
2023/08/07 08:39:47;;;;;;;5.28;2.13;;;16.30;99.90;;;;;;4981759;28;20046;-87
2023/08/07 08:42:15;;;;;;;9.75;2.45;;;15.90;99.90;;;;;;4987091;28;20061;-87
2023/08/07 08:44:50;;;;;;;5.68;1.85;;;15.50;99.90;;;;;;4982753;28;20146;-86
2023/08/07 08:47:16;;;;;;;6.45;2.28;;;15.30;99.90;;;;;;4976683;28;20038;-87
2023/08/07 08:50:00;;;;;;;5.22;2.30;;;15.20;99.90;;;;;;4978852;28;20420;-85
2023/08/07 08:52:28;;;;;;;6.47;2.53;;;15.10;99.90;;;;;;4986174;28;20807;-86
2023/08/07 08:54:54;;;;;;;7.10;2.70;;;15.20;99.90;;;;;;4988023;28;20137;-86
2023/08/07 08:57:20;;;;;;;7.35;3.03;;;15.40;99.90;;;;;;4985266;28;20047;-86
2023/08/07 08:59:50;;;;;;;9.77;3.30;;;15.70;99.90;;;;;;4986516;28;20051;-87
2023/08/07 09:02:17;;;;;;;6.55;2.90;;;15.80;99.90;;;;;;4987984;28;20061;-86
2023/08/07 09:04:43;;;;;;;7.68;2.95;;;16.00;99.90;;;;;;4977560;28;20038;-85
2023/08/07 09:07:11;;;;;;;7.13;2.83;;;16.10;99.90;;;;;;4975667;28;20070;-86
2023/08/07 09:09:37;;;;;;;10.15;3.10;;;16.20;99.90;;;;;;4976094;28;20038;-88
2023/08/07 09:12:04;;;;;;;9.10;2.90;;;16.20;99.90;;;;;;4985439;28;20059;-87
2023/08/07 09:14:33;;;;;;;10.13;3.05;;;16.30;99.90;;;;;;4985372;28;20050;-89
2023/08/07 09:17:01;;;;;;;8.27;2.85;;;16.40;99.90;;;;;;4988523;28;20089;-88
2023/08/07 09:19:27;;;;;;;13.45;3.08;;;16.50;99.90;;;;;;4985221;28;20042;-86
2023/08/07 09:21:53;;;;;;;5.45;2.70;;;16.60;99.90;;;;;;4971177;28;20050;-87
2023/08/07 09:24:21;;;;;;;6.90;2.38;;;16.60;99.90;;;;;;4984715;28;21649;-87
2023/08/07 09:26:47;;;;;;;6.15;2.55;;;16.70;99.90;;;;;;4969079;28;20126;-86
2023/08/07 09:29:13;;;;;;;5.40;2.10;;;16.80;99.90;;;;;;4977051;28;20046;-87
2023/08/07 09:31:42;;;;;;;5.55;2.50;;;16.90;99.90;;;;;;4988504;28;20405;-87
2023/08/07 09:34:08;;;;;;;7.57;3.10;;;17.00;99.90;;;;;;4988381;28;20042;-87
2023/08/07 09:36:34;;;;;;;7.35;2.40;;;17.00;99.90;;;;;;4985697;28;20522;-87
2023/08/07 09:39:04;;;;;;;5.95;2.60;;;16.90;99.90;;;;;;4985877;28;20515;-87
2023/08/07 09:41:34;;;;;;;6.82;2.33;;;16.90;99.90;;;;;;4986329;28;20486;-87
2023/08/07 09:44:10;;;;;;;6.10;2.30;;;17.00;99.90;;;;;;4987305;28;20083;-87
2023/08/07 09:46:43;;;;;;;4.60;1.85;;;17.10;99.90;;;;;;4987524;28;20042;-89
2023/08/07 09:49:09;;;;;;;7.68;2.15;;;17.30;99.90;;;;;;4973133;28;20394;-88
2023/08/07 09:51:50;;;;;;;11.10;2.83;;;17.40;99.90;;;;;;4975920;28;20085;-87
2023/08/07 09:54:15;;;;;;;7.57;2.38;;;17.40;99.90;;;;;;4968701;28;20051;-87
2023/08/07 09:56:41;;;;;;;5.50;1.98;;;17.50;99.90;;;;;;4982838;28;20089;-88
2023/08/07 09:59:08;;;;;;;5.45;2.10;;;17.70;99.90;;;;;;4987864;28;20536;-85
2023/08/07 10:01:37;;;;;;;4.25;2.08;;;17.80;99.90;;;;;;4986598;28;20073;-86
2023/08/07 10:04:03;;;;;;;5.28;2.15;;;18.00;99.90;;;;;;4982007;28;20044;-89
2023/08/07 10:06:30;;;;;;;6.07;2.20;;;18.20;99.90;;;;;;4984248;28;20133;-87
2023/08/07 10:08:57;;;;;;;5.97;2.42;;;18.00;99.90;;;;;;4983400;28;20077;-86
2023/08/07 10:11:23;;;;;;;6.72;2.17;;;17.90;99.90;;;;;;4983327;28;20098;-88
2023/08/07 10:13:50;;;;;;;7.88;2.38;;;17.70;99.90;;;;;;5000062;28;20038;-87
2023/08/07 10:16:15;;;;;;;8.40;2.50;;;17.40;99.90;;;;;;4987705;28;20508;-87
2023/08/07 10:18:41;;;;;;;6.22;2.13;;;17.40;99.90;;;;;;4984558;28;20076;-86
2023/08/07 10:21:07;;;;;;;6.68;2.05;;;17.30;99.90;;;;;;4987509;28;20054;-84
2023/08/07 10:23:38;;;;;;;5.53;2.38;;;17.30;99.90;;;;;;4983490;28;20073;-86
2023/08/07 10:26:06;;;;;;;6.63;2.33;;;17.40;99.90;;;;;;4978859;28;20066;-86
2023/08/07 10:28:34;;;;;;;5.13;1.85;;;17.50;99.90;;;;;;4984222;28;20157;-85
2023/08/07 10:31:00;;;;;;;4.38;2.05;;;17.80;99.90;;;;;;4979388;28;20050;-86
2023/08/07 10:33:27;;;;;;;7.00;2.05;;;18.00;99.90;;;;;;4988040;28;20172;-87
2023/08/07 10:35:53;;;;;;;5.40;2.10;;;18.10;99.90;;;;;;4986921;28;20687;-86
2023/08/07 10:38:20;;;;;;;3.70;1.83;;;18.00;99.90;;;;;;4979164;28;20137;-86
2023/08/07 10:41:00;;;;;;;7.60;1.95;;;17.80;99.90;;;;;;4985658;28;20043;-86
2023/08/07 10:43:27;;;;;;;6.07;2.00;;;17.70;99.90;;;;;;4977075;28;20101;-86
2023/08/07 10:45:53;;;;;;;4.72;2.20;;;17.60;99.90;;;;;;4985248;28;20074;-87
2023/08/07 10:48:21;;;;;;;4.95;1.77;;;17.50;99.90;;;;;;4984727;28;20178;-86
2023/08/07 10:51:03;;;;;;;5.90;2.28;;;17.70;99.90;;;;;;4979846;28;20042;-85
2023/08/07 10:53:42;;;;;;;3.50;1.98;;;17.50;99.90;;;;;;4983172;28;20066;-87
2023/08/07 10:56:09;;;;;;;5.82;2.03;;;17.70;99.90;;;;;;4985041;28;20078;-88
2023/08/07 10:58:39;;;;;;;4.40;2.17;;;17.80;99.90;;;;;;4975038;28;20121;-87
2023/08/07 11:01:20;;;;;;;6.22;2.25;;;17.90;99.90;;;;;;4975040;28;20058;-87
2023/08/07 11:03:50;;;;;;;5.00;2.15;;;17.80;99.90;;;;;;4985954;28;20049;-86
2023/08/07 11:06:17;;;;;;;4.88;2.13;;;17.60;99.90;;;;;;4968810;28;20054;-86
2023/08/07 11:08:43;;;;;;;6.53;2.47;;;17.40;99.90;;;;;;4981567;28;20045;-84
2023/08/07 11:11:11;;;;;;;6.15;2.17;;;17.30;99.90;;;;;;4978356;28;20035;-84
2023/08/07 11:13:37;;;;;;;6.05;2.33;;;17.20;99.90;;;;;;4985576;28;20133;-84
2023/08/07 11:16:03;;;;;;;6.32;1.77;;;17.20;99.90;;;;;;4968161;28;20134;-84
2023/08/07 11:18:30;;;;;;;5.10;2.28;;;17.30;99.90;;;;;;4975321;28;20065;-86
2023/08/07 11:20:56;;;;;;;3.85;1.55;;;17.20;99.90;;;;;;4989595;28;20038;-84
2023/08/07 11:23:25;;;;;;;5.35;2.05;;;17.30;99.90;;;;;;4982927;28;20056;-87
2023/08/07 11:25:52;;;;;;;5.00;1.75;;;17.50;99.90;;;;;;4981937;28;20050;-86
2023/08/07 11:28:22;;;;;;;3.70;1.60;;;17.60;99.90;;;;;;4978910;28;20078;-85
2023/08/07 11:30:50;;;;;;;6.22;1.77;;;17.70;99.90;;;;;;4990552;28;20058;-86
2023/08/07 11:33:18;;;;;;;5.03;2.00;;;17.70;99.90;;;;;;4977935;28;20133;-86
2023/08/07 11:35:45;;;;;;;4.57;1.90;;;17.70;99.90;;;;;;4972600;28;20520;-86
2023/08/07 11:38:11;;;;;;;4.72;1.92;;;17.60;99.90;;;;;;4989500;28;20133;-85
2023/08/07 11:40:36;;;;;;;3.55;1.98;;;17.50;99.90;;;;;;4978013;28;20118;-86
2023/08/07 11:43:02;;;;;;;3.30;1.48;;;17.90;99.90;;;;;;4990874;28;20407;-86
2023/08/07 11:45:28;;;;;;;4.72;1.75;;;17.80;99.90;;;;;;4988921;28;20372;-86
2023/08/07 11:47:56;;;;;;;4.55;1.55;;;17.80;99.90;;;;;;4967345;28;20137;-85
2023/08/07 11:50:22;;;;;;;6.90;1.63;;;17.80;99.90;;;;;;4979607;28;20137;-85
2023/08/07 11:52:48;;;;;;;3.13;1.50;;;17.90;99.90;;;;;;4988406;28;20523;-86
2023/08/07 11:55:14;;;;;;;4.75;1.77;;;18.00;99.90;;;;;;4990158;28;20078;-85
2023/08/07 11:57:45;;;;;;;5.18;1.98;;;18.00;99.90;;;;;;4990503;28;20133;-87
2023/08/07 12:00:13;;;;;;;4.63;1.80;;;18.10;99.90;;;;;;4985861;28;20125;-85
2023/08/07 12:02:47;;;;;;;4.13;1.65;;;18.20;99.90;;;;;;4986194;28;20046;-86
2023/08/07 12:05:13;;;;;;;4.85;1.58;;;18.30;99.90;;;;;;4984924;28;20081;-85
2023/08/07 12:07:39;;;;;;;3.97;1.77;;;18.30;99.90;;;;;;4981271;28;20530;-85
2023/08/07 12:10:09;;;;;;;5.75;1.52;;;18.30;99.90;;;;;;4982537;28;20045;-86
2023/08/07 12:12:38;;;;;;;4.85;1.80;;;18.40;99.90;;;;;;4978103;28;20037;-85
2023/08/07 12:15:08;;;;;;;4.57;1.83;;;18.50;99.90;;;;;;4974528;28;20148;-86
2023/08/07 12:17:34;;;;;;;4.18;1.70;;;18.60;99.90;;;;;;4972788;28;20078;-83
2023/08/07 12:20:07;;;;;;;3.83;1.90;;;18.70;99.90;;;;;;4981125;28;20074;-86
2023/08/07 12:22:33;;;;;;;5.65;1.70;;;18.90;99.90;;;;;;4983232;28;20118;-87
2023/08/07 12:24:58;;;;;;;4.57;2.00;;;18.90;99.90;;;;;;4983598;28;20160;-85
2023/08/07 12:27:24;;;;;;;4.85;1.88;;;18.80;99.90;;;;;;4986202;28;20046;-87
2023/08/07 12:29:49;;;;;;;6.28;1.85;;;18.50;99.90;;;;;;4978947;28;20050;-86
2023/08/07 12:32:15;;;;;;;4.53;2.00;;;18.30;99.90;;;;;;4982922;28;20038;-86
2023/08/07 12:34:40;;;;;;;3.80;1.92;;;17.90;99.90;;;;;;4972970;28;20039;-87
2023/08/07 12:37:06;;;;;;;5.82;1.63;;;17.80;99.90;;;;;;4980056;28;20112;-90
2023/08/07 12:39:32;;;;;;;4.30;1.90;;;17.70;99.90;;;;;;4977011;28;20046;-87
2023/08/07 12:41:58;;;;;;;5.05;1.80;;;17.50;99.90;;;;;;4978637;28;20505;-85